sensor_id;sensor_type;location;lat;lon;timestamp;P1;durP1;ratioP1;P2;durP2;ratioP2
41512;SDS011;27244;59.940;30.280;2023-04-23T00:00:15;9.32;;;4.10;;
41512;SDS011;27244;59.940;30.280;2023-04-23T00:02:44;10.25;;;5.18;;
41512;SDS011;27244;59.940;30.280;2023-04-23T00:05:14;15.85;;;4.60;;
41512;SDS011;27244;59.940;30.280;2023-04-23T00:07:41;8.55;;;4.45;;
41512;SDS011;27244;59.940;30.280;2023-04-23T00:10:09;9.38;;;4.47;;
41512;SDS011;27244;59.940;30.280;2023-04-23T00:12:37;16.83;;;5.32;;
41512;SDS011;27244;59.940;30.280;2023-04-23T00:15:04;10.18;;;5.47;;
41512;SDS011;27244;59.940;30.280;2023-04-23T00:17:32;9.68;;;4.85;;
41512;SDS011;27244;59.940;30.280;2023-04-23T00:20:01;8.75;;;4.63;;
41512;SDS011;27244;59.940;30.280;2023-04-23T00:22:28;10.00;;;4.47;;
41512;SDS011;27244;59.940;30.280;2023-04-23T00:24:54;10.57;;;5.00;;
41512;SDS011;27244;59.940;30.280;2023-04-23T00:27:21;10.98;;;4.82;;
41512;SDS011;27244;59.940;30.280;2023-04-23T00:29:48;8.90;;;4.38;;
41512;SDS011;27244;59.940;30.280;2023-04-23T00:32:15;9.55;;;4.32;;
41512;SDS011;27244;59.940;30.280;2023-04-23T00:34:42;7.75;;;4.95;;
41512;SDS011;27244;59.940;30.280;2023-04-23T00:37:14;10.23;;;4.57;;
41512;SDS011;27244;59.940;30.280;2023-04-23T00:39:41;8.00;;;3.75;;
41512;SDS011;27244;59.940;30.280;2023-04-23T00:42:08;12.02;;;3.90;;
41512;SDS011;27244;59.940;30.280;2023-04-23T00:44:36;8.23;;;4.07;;
41512;SDS011;27244;59.940;30.280;2023-04-23T00:47:05;6.20;;;4.15;;
41512;SDS011;27244;59.940;30.280;2023-04-23T00:49:32;6.85;;;3.95;;
41512;SDS011;27244;59.940;30.280;2023-04-23T00:52:00;7.35;;;3.92;;
41512;SDS011;27244;59.940;30.280;2023-04-23T00:54:28;7.70;;;3.42;;
41512;SDS011;27244;59.940;30.280;2023-04-23T00:56:55;5.75;;;3.05;;
41512;SDS011;27244;59.940;30.280;2023-04-23T00:59:23;7.15;;;3.33;;
41512;SDS011;27244;59.940;30.280;2023-04-23T01:01:52;5.03;;;3.20;;
41512;SDS011;27244;59.940;30.280;2023-04-23T01:04:19;6.20;;;2.90;;
41512;SDS011;27244;59.940;30.280;2023-04-23T01:06:48;5.28;;;3.45;;
41512;SDS011;27244;59.940;30.280;2023-04-23T01:09:15;6.63;;;2.75;;
41512;SDS011;27244;59.940;30.280;2023-04-23T01:11:44;6.80;;;3.13;;
41512;SDS011;27244;59.940;30.280;2023-04-23T01:14:12;5.82;;;3.03;;
41512;SDS011;27244;59.940;30.280;2023-04-23T01:16:39;5.88;;;2.88;;
41512;SDS011;27244;59.940;30.280;2023-04-23T01:19:07;5.57;;;2.83;;
41512;SDS011;27244;59.940;30.280;2023-04-23T01:21:36;5.05;;;2.90;;
41512;SDS011;27244;59.940;30.280;2023-04-23T01:24:07;4.53;;;2.42;;
41512;SDS011;27244;59.940;30.280;2023-04-23T01:26:35;6.00;;;2.72;;
41512;SDS011;27244;59.940;30.280;2023-04-23T01:29:03;4.70;;;2.70;;
41512;SDS011;27244;59.940;30.280;2023-04-23T01:31:30;4.20;;;2.65;;
41512;SDS011;27244;59.940;30.280;2023-04-23T01:33:58;6.57;;;2.60;;
41512;SDS011;27244;59.940;30.280;2023-04-23T01:36:26;6.35;;;2.55;;
41512;SDS011;27244;59.940;30.280;2023-04-23T01:38:53;4.75;;;2.42;;
41512;SDS011;27244;59.940;30.280;2023-04-23T01:41:21;4.55;;;2.50;;
41512;SDS011;27244;59.940;30.280;2023-04-23T01:43:49;4.03;;;2.63;;
41512;SDS011;27244;59.940;30.280;2023-04-23T01:46:16;5.25;;;2.42;;
41512;SDS011;27244;59.940;30.280;2023-04-23T01:48:43;6.22;;;2.38;;
41512;SDS011;27244;59.940;30.280;2023-04-23T01:51:10;3.80;;;2.65;;
41512;SDS011;27244;59.940;30.280;2023-04-23T01:53:37;6.57;;;2.85;;
41512;SDS011;27244;59.940;30.280;2023-04-23T01:56:04;4.47;;;2.45;;
41512;SDS011;27244;59.940;30.280;2023-04-23T01:58:35;3.67;;;2.30;;
41512;SDS011;27244;59.940;30.280;2023-04-23T02:01:02;3.22;;;2.17;;
41512;SDS011;27244;59.940;30.280;2023-04-23T02:03:29;6.88;;;2.45;;
41512;SDS011;27244;59.940;30.280;2023-04-23T02:05:57;5.43;;;2.50;;
41512;SDS011;27244;59.940;30.280;2023-04-23T02:08:25;4.85;;;2.38;;
41512;SDS011;27244;59.940;30.280;2023-04-23T02:10:52;3.85;;;2.22;;
41512;SDS011;27244;59.940;30.280;2023-04-23T02:13:19;4.53;;;2.40;;
41512;SDS011;27244;59.940;30.280;2023-04-23T02:15:48;5.68;;;2.53;;
41512;SDS011;27244;59.940;30.280;2023-04-23T02:18:15;3.42;;;2.00;;
41512;SDS011;27244;59.940;30.280;2023-04-23T02:20:42;4.88;;;2.58;;
41512;SDS011;27244;59.940;30.280;2023-04-23T02:23:09;2.92;;;1.98;;
41512;SDS011;27244;59.940;30.280;2023-04-23T02:25:37;5.97;;;2.55;;
41512;SDS011;27244;59.940;30.280;2023-04-23T02:28:04;4.82;;;2.20;;
41512;SDS011;27244;59.940;30.280;2023-04-23T02:30:32;5.32;;;2.75;;
41512;SDS011;27244;59.940;30.280;2023-04-23T02:33:01;5.88;;;2.80;;
41512;SDS011;27244;59.940;30.280;2023-04-23T02:35:28;4.13;;;2.40;;
41512;SDS011;27244;59.940;30.280;2023-04-23T02:37:55;9.45;;;2.60;;
41512;SDS011;27244;59.940;30.280;2023-04-23T02:40:22;5.15;;;2.55;;
41512;SDS011;27244;59.940;30.280;2023-04-23T02:42:49;4.68;;;2.20;;
41512;SDS011;27244;59.940;30.280;2023-04-23T02:45:16;4.15;;;2.05;;
41512;SDS011;27244;59.940;30.280;2023-04-23T02:47:43;5.65;;;2.42;;
41512;SDS011;27244;59.940;30.280;2023-04-23T02:50:11;4.10;;;1.92;;
41512;SDS011;27244;59.940;30.280;2023-04-23T02:52:38;5.60;;;2.50;;
41512;SDS011;27244;59.940;30.280;2023-04-23T02:55:06;6.38;;;2.20;;
41512;SDS011;27244;59.940;30.280;2023-04-23T02:57:35;6.05;;;2.00;;
41512;SDS011;27244;59.940;30.280;2023-04-23T03:00:02;4.65;;;2.30;;
41512;SDS011;27244;59.940;30.280;2023-04-23T03:02:35;3.95;;;2.30;;
41512;SDS011;27244;59.940;30.280;2023-04-23T03:05:02;6.95;;;2.10;;
41512;SDS011;27244;59.940;30.280;2023-04-23T03:07:31;6.10;;;2.63;;
41512;SDS011;27244;59.940;30.280;2023-04-23T03:09:58;5.13;;;2.40;;
41512;SDS011;27244;59.940;30.280;2023-04-23T03:12:25;5.72;;;2.70;;
41512;SDS011;27244;59.940;30.280;2023-04-23T03:14:52;5.55;;;2.60;;
41512;SDS011;27244;59.940;30.280;2023-04-23T03:17:21;4.75;;;2.83;;
41512;SDS011;27244;59.940;30.280;2023-04-23T03:19:48;5.72;;;2.25;;
41512;SDS011;27244;59.940;30.280;2023-04-23T03:22:15;5.75;;;2.20;;
41512;SDS011;27244;59.940;30.280;2023-04-23T03:24:44;5.65;;;2.90;;
41512;SDS011;27244;59.940;30.280;2023-04-23T03:27:11;5.65;;;2.38;;
41512;SDS011;27244;59.940;30.280;2023-04-23T03:29:38;6.22;;;2.40;;
41512;SDS011;27244;59.940;30.280;2023-04-23T03:32:05;4.13;;;2.05;;
41512;SDS011;27244;59.940;30.280;2023-04-23T03:34:32;3.78;;;2.10;;
41512;SDS011;27244;59.940;30.280;2023-04-23T03:37:00;5.10;;;2.40;;
41512;SDS011;27244;59.940;30.280;2023-04-23T03:39:29;6.13;;;1.98;;
41512;SDS011;27244;59.940;30.280;2023-04-23T03:41:58;5.30;;;1.92;;
41512;SDS011;27244;59.940;30.280;2023-04-23T03:44:28;4.05;;;1.90;;
41512;SDS011;27244;59.940;30.280;2023-04-23T03:46:55;4.75;;;1.90;;
41512;SDS011;27244;59.940;30.280;2023-04-23T03:49:22;5.25;;;2.00;;
41512;SDS011;27244;59.940;30.280;2023-04-23T03:51:53;3.83;;;1.80;;
41512;SDS011;27244;59.940;30.280;2023-04-23T03:54:21;4.10;;;1.90;;
41512;SDS011;27244;59.940;30.280;2023-04-23T03:57:03;4.57;;;1.40;;
41512;SDS011;27244;59.940;30.280;2023-04-23T03:59:37;4.43;;;2.10;;
41512;SDS011;27244;59.940;30.280;2023-04-23T04:02:04;3.13;;;1.60;;
41512;SDS011;27244;59.940;30.280;2023-04-23T04:04:31;4.95;;;1.45;;
41512;SDS011;27244;59.940;30.280;2023-04-23T04:06:59;2.15;;;1.17;;
41512;SDS011;27244;59.940;30.280;2023-04-23T04:09:26;3.17;;;1.38;;
41512;SDS011;27244;59.940;30.280;2023-04-23T04:11:53;3.38;;;1.50;;
41512;SDS011;27244;59.940;30.280;2023-04-23T04:14:22;5.05;;;1.75;;
41512;SDS011;27244;59.940;30.280;2023-04-23T04:16:49;4.35;;;1.98;;
41512;SDS011;27244;59.940;30.280;2023-04-23T04:19:16;2.30;;;1.30;;
41512;SDS011;27244;59.940;30.280;2023-04-23T04:21:43;2.65;;;1.40;;
41512;SDS011;27244;59.940;30.280;2023-04-23T04:24:10;2.72;;;1.20;;
41512;SDS011;27244;59.940;30.280;2023-04-23T04:26:37;2.58;;;1.23;;
41512;SDS011;27244;59.940;30.280;2023-04-23T04:29:04;4.47;;;1.88;;
41512;SDS011;27244;59.940;30.280;2023-04-23T04:31:32;2.58;;;1.38;;
41512;SDS011;27244;59.940;30.280;2023-04-23T04:34:00;3.08;;;1.10;;
41512;SDS011;27244;59.940;30.280;2023-04-23T04:36:27;3.70;;;1.35;;
41512;SDS011;27244;59.940;30.280;2023-04-23T04:38:54;1.73;;;1.20;;
41512;SDS011;27244;59.940;30.280;2023-04-23T04:41:22;3.42;;;1.20;;
41512;SDS011;27244;59.940;30.280;2023-04-23T04:43:51;4.30;;;1.45;;
41512;SDS011;27244;59.940;30.280;2023-04-23T04:46:19;2.58;;;0.98;;
41512;SDS011;27244;59.940;30.280;2023-04-23T04:48:48;2.95;;;1.10;;
41512;SDS011;27244;59.940;30.280;2023-04-23T04:51:15;2.13;;;1.10;;
41512;SDS011;27244;59.940;30.280;2023-04-23T04:53:42;4.20;;;1.30;;
41512;SDS011;27244;59.940;30.280;2023-04-23T04:56:09;2.80;;;1.55;;
41512;SDS011;27244;59.940;30.280;2023-04-23T04:58:36;2.42;;;1.20;;
41512;SDS011;27244;59.940;30.280;2023-04-23T05:01:03;2.80;;;1.10;;
41512;SDS011;27244;59.940;30.280;2023-04-23T05:03:30;2.75;;;1.10;;
41512;SDS011;27244;59.940;30.280;2023-04-23T05:05:59;2.92;;;1.42;;
41512;SDS011;27244;59.940;30.280;2023-04-23T05:08:26;2.70;;;1.10;;
41512;SDS011;27244;59.940;30.280;2023-04-23T05:10:53;2.85;;;1.10;;
41512;SDS011;27244;59.940;30.280;2023-04-23T05:13:20;2.30;;;1.02;;
41512;SDS011;27244;59.940;30.280;2023-04-23T05:15:47;2.08;;;1.15;;
41512;SDS011;27244;59.940;30.280;2023-04-23T05:18:14;1.40;;;0.80;;
41512;SDS011;27244;59.940;30.280;2023-04-23T05:20:41;3.25;;;1.15;;
41512;SDS011;27244;59.940;30.280;2023-04-23T05:23:09;1.30;;;1.02;;
41512;SDS011;27244;59.940;30.280;2023-04-23T05:25:36;1.40;;;0.82;;
41512;SDS011;27244;59.940;30.280;2023-04-23T05:28:03;2.45;;;1.10;;
41512;SDS011;27244;59.940;30.280;2023-04-23T05:30:32;2.47;;;0.90;;
41512;SDS011;27244;59.940;30.280;2023-04-23T05:33:00;2.58;;;1.10;;
41512;SDS011;27244;59.940;30.280;2023-04-23T05:35:27;1.63;;;0.93;;
41512;SDS011;27244;59.940;30.280;2023-04-23T05:37:56;3.17;;;0.90;;
41512;SDS011;27244;59.940;30.280;2023-04-23T05:40:24;1.83;;;0.95;;
41512;SDS011;27244;59.940;30.280;2023-04-23T05:42:51;1.80;;;0.80;;
41512;SDS011;27244;59.940;30.280;2023-04-23T05:45:19;1.58;;;0.93;;
41512;SDS011;27244;59.940;30.280;2023-04-23T05:47:46;1.80;;;1.25;;
41512;SDS011;27244;59.940;30.280;2023-04-23T05:50:13;4.20;;;1.08;;
41512;SDS011;27244;59.940;30.280;2023-04-23T05:52:40;3.30;;;1.08;;
41512;SDS011;27244;59.940;30.280;2023-04-23T05:55:07;2.53;;;1.27;;
41512;SDS011;27244;59.940;30.280;2023-04-23T05:57:36;1.92;;;1.10;;
41512;SDS011;27244;59.940;30.280;2023-04-23T06:00:04;2.20;;;0.88;;
41512;SDS011;27244;59.940;30.280;2023-04-23T06:02:38;2.33;;;1.00;;
41512;SDS011;27244;59.940;30.280;2023-04-23T06:05:06;4.07;;;1.15;;
41512;SDS011;27244;59.940;30.280;2023-04-23T06:07:34;2.00;;;1.08;;
41512;SDS011;27244;59.940;30.280;2023-04-23T06:10:01;2.60;;;0.93;;
41512;SDS011;27244;59.940;30.280;2023-04-23T06:12:29;3.55;;;1.35;;
41512;SDS011;27244;59.940;30.280;2023-04-23T06:14:57;4.03;;;0.93;;
41512;SDS011;27244;59.940;30.280;2023-04-23T06:17:24;2.15;;;1.17;;
41512;SDS011;27244;59.940;30.280;2023-04-23T06:19:52;2.47;;;0.75;;
41512;SDS011;27244;59.940;30.280;2023-04-23T06:22:19;3.80;;;1.00;;
41512;SDS011;27244;59.940;30.280;2023-04-23T06:24:46;1.63;;;0.93;;
41512;SDS011;27244;59.940;30.280;2023-04-23T06:27:13;4.68;;;1.33;;
41512;SDS011;27244;59.940;30.280;2023-04-23T06:29:45;2.97;;;1.33;;
41512;SDS011;27244;59.940;30.280;2023-04-23T06:32:13;3.97;;;1.10;;
41512;SDS011;27244;59.940;30.280;2023-04-23T06:34:41;3.08;;;0.85;;
41512;SDS011;27244;59.940;30.280;2023-04-23T06:37:08;2.88;;;1.00;;
41512;SDS011;27244;59.940;30.280;2023-04-23T06:39:35;1.33;;;0.80;;
41512;SDS011;27244;59.940;30.280;2023-04-23T06:42:02;1.92;;;0.80;;
41512;SDS011;27244;59.940;30.280;2023-04-23T06:45:07;2.20;;;0.85;;
41512;SDS011;27244;59.940;30.280;2023-04-23T06:47:36;2.42;;;0.93;;
41512;SDS011;27244;59.940;30.280;2023-04-23T06:50:04;4.07;;;1.00;;
41512;SDS011;27244;59.940;30.280;2023-04-23T06:52:32;28.73;;;2.38;;
41512;SDS011;27244;59.940;30.280;2023-04-23T06:55:00;9.60;;;1.15;;
41512;SDS011;27244;59.940;30.280;2023-04-23T06:57:27;6.10;;;1.00;;
41512;SDS011;27244;59.940;30.280;2023-04-23T06:59:54;6.00;;;1.15;;
41512;SDS011;27244;59.940;30.280;2023-04-23T07:02:24;7.88;;;1.08;;
41512;SDS011;27244;59.940;30.280;2023-04-23T07:04:52;4.32;;;1.60;;
41512;SDS011;27244;59.940;30.280;2023-04-23T07:07:19;6.75;;;1.10;;
41512;SDS011;27244;59.940;30.280;2023-04-23T07:09:46;3.67;;;1.02;;
41512;SDS011;27244;59.940;30.280;2023-04-23T07:12:13;3.17;;;0.95;;
41512;SDS011;27244;59.940;30.280;2023-04-23T07:14:40;3.65;;;1.08;;
41512;SDS011;27244;59.940;30.280;2023-04-23T07:17:07;7.60;;;1.33;;
41512;SDS011;27244;59.940;30.280;2023-04-23T07:19:35;3.65;;;0.85;;
41512;SDS011;27244;59.940;30.280;2023-04-23T07:22:03;4.15;;;1.05;;
41512;SDS011;27244;59.940;30.280;2023-04-23T07:24:30;6.43;;;1.17;;
41512;SDS011;27244;59.940;30.280;2023-04-23T07:26:57;4.72;;;1.05;;
41512;SDS011;27244;59.940;30.280;2023-04-23T07:29:24;3.58;;;1.15;;
41512;SDS011;27244;59.940;30.280;2023-04-23T07:31:51;4.05;;;0.85;;
41512;SDS011;27244;59.940;30.280;2023-04-23T07:34:18;5.10;;;0.90;;
41512;SDS011;27244;59.940;30.280;2023-04-23T07:36:45;3.35;;;1.10;;
41512;SDS011;27244;59.940;30.280;2023-04-23T07:39:13;2.55;;;0.90;;
41512;SDS011;27244;59.940;30.280;2023-04-23T07:41:41;2.80;;;1.13;;
41512;SDS011;27244;59.940;30.280;2023-04-23T07:44:08;2.05;;;1.00;;
41512;SDS011;27244;59.940;30.280;2023-04-23T07:46:35;1.90;;;1.17;;
41512;SDS011;27244;59.940;30.280;2023-04-23T07:49:02;2.22;;;1.20;;
41512;SDS011;27244;59.940;30.280;2023-04-23T07:51:29;2.92;;;1.00;;
41512;SDS011;27244;59.940;30.280;2023-04-23T07:53:56;2.90;;;1.10;;
41512;SDS011;27244;59.940;30.280;2023-04-23T07:56:24;3.55;;;1.10;;
41512;SDS011;27244;59.940;30.280;2023-04-23T07:58:51;2.92;;;1.48;;
41512;SDS011;27244;59.940;30.280;2023-04-23T08:01:20;2.33;;;0.93;;
41512;SDS011;27244;59.940;30.280;2023-04-23T08:03:47;4.80;;;1.20;;
41512;SDS011;27244;59.940;30.280;2023-04-23T08:06:14;3.10;;;1.05;;
41512;SDS011;27244;59.940;30.280;2023-04-23T08:08:42;3.65;;;1.05;;
41512;SDS011;27244;59.940;30.280;2023-04-23T08:11:09;2.88;;;1.02;;
41512;SDS011;27244;59.940;30.280;2023-04-23T08:13:38;5.82;;;1.10;;
41512;SDS011;27244;59.940;30.280;2023-04-23T08:16:05;2.05;;;1.00;;
41512;SDS011;27244;59.940;30.280;2023-04-23T08:18:32;1.95;;;1.10;;
41512;SDS011;27244;59.940;30.280;2023-04-23T08:20:59;2.20;;;0.95;;
41512;SDS011;27244;59.940;30.280;2023-04-23T08:23:27;1.90;;;0.88;;
41512;SDS011;27244;59.940;30.280;2023-04-23T08:25:54;2.42;;;1.30;;
41512;SDS011;27244;59.940;30.280;2023-04-23T08:28:21;2.33;;;0.98;;
41512;SDS011;27244;59.940;30.280;2023-04-23T08:30:49;4.63;;;1.00;;
41512;SDS011;27244;59.940;30.280;2023-04-23T08:33:16;2.78;;;1.17;;
41512;SDS011;27244;59.940;30.280;2023-04-23T08:35:43;2.22;;;1.00;;
41512;SDS011;27244;59.940;30.280;2023-04-23T08:38:10;2.60;;;1.10;;
41512;SDS011;27244;59.940;30.280;2023-04-23T08:40:37;2.58;;;1.00;;
41512;SDS011;27244;59.940;30.280;2023-04-23T08:43:09;5.32;;;1.40;;
41512;SDS011;27244;59.940;30.280;2023-04-23T08:45:41;3.72;;;1.45;;
41512;SDS011;27244;59.940;30.280;2023-04-23T08:48:14;4.15;;;1.00;;
41512;SDS011;27244;59.940;30.280;2023-04-23T08:50:42;3.53;;;1.05;;
41512;SDS011;27244;59.940;30.280;2023-04-23T08:53:10;2.85;;;0.90;;
41512;SDS011;27244;59.940;30.280;2023-04-23T08:55:43;2.45;;;1.05;;
41512;SDS011;27244;59.940;30.280;2023-04-23T08:58:11;2.90;;;1.08;;
41512;SDS011;27244;59.940;30.280;2023-04-23T09:00:39;1.58;;;0.90;;
41512;SDS011;27244;59.940;30.280;2023-04-23T09:03:07;2.05;;;1.00;;
41512;SDS011;27244;59.940;30.280;2023-04-23T09:05:36;2.75;;;0.90;;
41512;SDS011;27244;59.940;30.280;2023-04-23T09:08:03;1.95;;;0.90;;
41512;SDS011;27244;59.940;30.280;2023-04-23T09:10:31;2.20;;;1.00;;
41512;SDS011;27244;59.940;30.280;2023-04-23T09:13:01;1.58;;;0.95;;
41512;SDS011;27244;59.940;30.280;2023-04-23T09:15:28;2.45;;;0.80;;
41512;SDS011;27244;59.940;30.280;2023-04-23T09:17:56;1.20;;;0.80;;
41512;SDS011;27244;59.940;30.280;2023-04-23T09:20:25;2.53;;;1.00;;
41512;SDS011;27244;59.940;30.280;2023-04-23T09:22:53;3.67;;;0.93;;
41512;SDS011;27244;59.940;30.280;2023-04-23T09:25:22;2.70;;;1.10;;
41512;SDS011;27244;59.940;30.280;2023-04-23T09:27:50;2.17;;;0.95;;
41512;SDS011;27244;59.940;30.280;2023-04-23T09:30:18;1.73;;;0.52;;
41512;SDS011;27244;59.940;30.280;2023-04-23T09:32:45;1.42;;;0.80;;
41512;SDS011;27244;59.940;30.280;2023-04-23T09:35:14;1.58;;;0.88;;
41512;SDS011;27244;59.940;30.280;2023-04-23T09:37:44;2.78;;;1.00;;
41512;SDS011;27244;59.940;30.280;2023-04-23T09:40:14;2.22;;;0.80;;
41512;SDS011;27244;59.940;30.280;2023-04-23T09:42:46;1.50;;;0.95;;
41512;SDS011;27244;59.940;30.280;2023-04-23T09:47:46;3.00;;;0.70;;
41512;SDS011;27244;59.940;30.280;2023-04-23T09:50:15;1.45;;;0.70;;
41512;SDS011;27244;59.940;30.280;2023-04-23T09:52:42;2.63;;;0.65;;
41512;SDS011;27244;59.940;30.280;2023-04-23T09:55:09;3.83;;;0.80;;
41512;SDS011;27244;59.940;30.280;2023-04-23T09:57:37;1.48;;;0.80;;
41512;SDS011;27244;59.940;30.280;2023-04-23T10:00:14;1.35;;;0.73;;
41512;SDS011;27244;59.940;30.280;2023-04-23T10:02:46;1.50;;;0.80;;
41512;SDS011;27244;59.940;30.280;2023-04-23T10:05:14;2.45;;;0.90;;
41512;SDS011;27244;59.940;30.280;2023-04-23T10:07:41;2.05;;;0.80;;
41512;SDS011;27244;59.940;30.280;2023-04-23T10:10:10;0.93;;;0.70;;
41512;SDS011;27244;59.940;30.280;2023-04-23T10:12:39;2.20;;;0.80;;
41512;SDS011;27244;59.940;30.280;2023-04-23T10:15:07;1.13;;;0.68;;
41512;SDS011;27244;59.940;30.280;2023-04-23T10:17:36;1.10;;;0.63;;
41512;SDS011;27244;59.940;30.280;2023-04-23T10:20:04;2.72;;;1.25;;
41512;SDS011;27244;59.940;30.280;2023-04-23T10:22:32;1.73;;;0.82;;
41512;SDS011;27244;59.940;30.280;2023-04-23T10:25:03;1.42;;;0.80;;
41512;SDS011;27244;59.940;30.280;2023-04-23T10:27:33;3.08;;;0.90;;
41512;SDS011;27244;59.940;30.280;2023-04-23T10:30:05;1.87;;;0.97;;
41512;SDS011;27244;59.940;30.280;2023-04-23T10:32:34;3.80;;;0.90;;
41512;SDS011;27244;59.940;30.280;2023-04-23T10:35:02;4.07;;;1.02;;
41512;SDS011;27244;59.940;30.280;2023-04-23T10:37:29;2.78;;;0.85;;
41512;SDS011;27244;59.940;30.280;2023-04-23T10:39:59;2.70;;;1.00;;
41512;SDS011;27244;59.940;30.280;2023-04-23T10:42:32;2.67;;;0.88;;
41512;SDS011;27244;59.940;30.280;2023-04-23T10:44:59;3.67;;;0.85;;
41512;SDS011;27244;59.940;30.280;2023-04-23T10:47:27;3.40;;;0.80;;
41512;SDS011;27244;59.940;30.280;2023-04-23T10:49:56;1.20;;;0.75;;
41512;SDS011;27244;59.940;30.280;2023-04-23T10:52:23;1.80;;;1.02;;
41512;SDS011;27244;59.940;30.280;2023-04-23T10:54:55;3.00;;;0.98;;
41512;SDS011;27244;59.940;30.280;2023-04-23T10:57:24;1.58;;;0.80;;
41512;SDS011;27244;59.940;30.280;2023-04-23T10:59:51;2.55;;;0.90;;
41512;SDS011;27244;59.940;30.280;2023-04-23T11:02:21;2.40;;;0.95;;
41512;SDS011;27244;59.940;30.280;2023-04-23T11:04:54;2.70;;;0.73;;
41512;SDS011;27244;59.940;30.280;2023-04-23T11:07:24;2.00;;;0.98;;
41512;SDS011;27244;59.940;30.280;2023-04-23T11:09:56;2.80;;;1.20;;
41512;SDS011;27244;59.940;30.280;2023-04-23T11:12:31;3.78;;;1.10;;
41512;SDS011;27244;59.940;30.280;2023-04-23T11:14:58;3.50;;;1.20;;
41512;SDS011;27244;59.940;30.280;2023-04-23T11:20:27;2.25;;;1.50;;
41512;SDS011;27244;59.940;30.280;2023-04-23T11:22:54;5.05;;;1.80;;
41512;SDS011;27244;59.940;30.280;2023-04-23T11:25:21;2.80;;;0.93;;
41512;SDS011;27244;59.940;30.280;2023-04-23T11:27:50;1.92;;;0.88;;
41512;SDS011;27244;59.940;30.280;2023-04-23T11:30:21;1.98;;;1.05;;
41512;SDS011;27244;59.940;30.280;2023-04-23T11:32:51;2.28;;;0.95;;
41512;SDS011;27244;59.940;30.280;2023-04-23T11:35:21;3.00;;;0.85;;
41512;SDS011;27244;59.940;30.280;2023-04-23T11:37:53;2.20;;;0.80;;
41512;SDS011;27244;59.940;30.280;2023-04-23T11:40:21;3.03;;;0.98;;
41512;SDS011;27244;59.940;30.280;2023-04-23T11:42:50;3.22;;;1.20;;
41512;SDS011;27244;59.940;30.280;2023-04-23T11:45:19;2.78;;;1.00;;
41512;SDS011;27244;59.940;30.280;2023-04-23T11:47:48;1.80;;;1.00;;
41512;SDS011;27244;59.940;30.280;2023-04-23T11:50:20;2.05;;;0.95;;
41512;SDS011;27244;59.940;30.280;2023-04-23T11:52:48;1.98;;;1.15;;
41512;SDS011;27244;59.940;30.280;2023-04-23T11:55:18;2.25;;;1.10;;
41512;SDS011;27244;59.940;30.280;2023-04-23T11:57:46;1.40;;;1.00;;
41512;SDS011;27244;59.940;30.280;2023-04-23T12:00:15;2.08;;;1.08;;
41512;SDS011;27244;59.940;30.280;2023-04-23T12:02:50;1.67;;;0.93;;
41512;SDS011;27244;59.940;30.280;2023-04-23T12:05:19;2.22;;;1.00;;
41512;SDS011;27244;59.940;30.280;2023-04-23T12:08:05;1.60;;;0.90;;
41512;SDS011;27244;59.940;30.280;2023-04-23T12:10:40;3.00;;;1.00;;
41512;SDS011;27244;59.940;30.280;2023-04-23T12:13:12;1.27;;;0.70;;
41512;SDS011;27244;59.940;30.280;2023-04-23T12:18:10;9.77;;;1.45;;
41512;SDS011;27244;59.940;30.280;2023-04-23T12:20:37;4.15;;;1.00;;
41512;SDS011;27244;59.940;30.280;2023-04-23T12:23:05;3.00;;;0.90;;
41512;SDS011;27244;59.940;30.280;2023-04-23T12:25:33;2.05;;;0.82;;
41512;SDS011;27244;59.940;30.280;2023-04-23T12:28:02;4.60;;;1.50;;
41512;SDS011;27244;59.940;30.280;2023-04-23T12:30:31;2.72;;;0.90;;
41512;SDS011;27244;59.940;30.280;2023-04-23T12:33:00;3.45;;;0.90;;
41512;SDS011;27244;59.940;30.280;2023-04-23T12:35:37;2.22;;;1.27;;
41512;SDS011;27244;59.940;30.280;2023-04-23T12:38:04;2.10;;;0.80;;
41512;SDS011;27244;59.940;30.280;2023-04-23T12:40:31;3.38;;;0.75;;
41512;SDS011;27244;59.940;30.280;2023-04-23T12:43:00;2.17;;;1.00;;
41512;SDS011;27244;59.940;30.280;2023-04-23T12:45:35;1.30;;;0.68;;
41512;SDS011;27244;59.940;30.280;2023-04-23T12:48:02;3.53;;;0.85;;
41512;SDS011;27244;59.940;30.280;2023-04-23T12:50:29;2.05;;;0.93;;
41512;SDS011;27244;59.940;30.280;2023-04-23T12:52:56;5.38;;;1.15;;
41512;SDS011;27244;59.940;30.280;2023-04-23T12:55:23;2.10;;;0.60;;
41512;SDS011;27244;59.940;30.280;2023-04-23T12:57:50;1.05;;;0.75;;
41512;SDS011;27244;59.940;30.280;2023-04-23T13:00:19;2.20;;;0.73;;
41512;SDS011;27244;59.940;30.280;2023-04-23T13:02:46;3.63;;;1.00;;
41512;SDS011;27244;59.940;30.280;2023-04-23T13:05:13;0.93;;;0.55;;
41512;SDS011;27244;59.940;30.280;2023-04-23T13:07:39;2.63;;;0.82;;
41512;SDS011;27244;59.940;30.280;2023-04-23T13:10:07;2.65;;;0.65;;
41512;SDS011;27244;59.940;30.280;2023-04-23T13:12:34;8.10;;;1.48;;
41512;SDS011;27244;59.940;30.280;2023-04-23T13:15:01;3.50;;;0.80;;
41512;SDS011;27244;59.940;30.280;2023-04-23T13:17:30;5.18;;;0.90;;
41512;SDS011;27244;59.940;30.280;2023-04-23T13:19:57;5.22;;;1.40;;
41512;SDS011;27244;59.940;30.280;2023-04-23T13:22:24;4.93;;;1.00;;
41512;SDS011;27244;59.940;30.280;2023-04-23T13:24:53;3.53;;;0.90;;
41512;SDS011;27244;59.940;30.280;2023-04-23T13:27:21;3.40;;;1.13;;
41512;SDS011;27244;59.940;30.280;2023-04-23T13:29:49;2.35;;;0.88;;
41512;SDS011;27244;59.940;30.280;2023-04-23T13:32:16;4.22;;;0.80;;
41512;SDS011;27244;59.940;30.280;2023-04-23T13:34:44;4.68;;;0.88;;
41512;SDS011;27244;59.940;30.280;2023-04-23T13:37:11;2.55;;;0.93;;
41512;SDS011;27244;59.940;30.280;2023-04-23T13:39:38;2.53;;;0.63;;
41512;SDS011;27244;59.940;30.280;2023-04-23T13:42:05;3.75;;;0.80;;
41512;SDS011;27244;59.940;30.280;2023-04-23T13:44:32;1.42;;;0.70;;
41512;SDS011;27244;59.940;30.280;2023-04-23T13:46:59;2.33;;;0.60;;
41512;SDS011;27244;59.940;30.280;2023-04-23T13:49:26;4.10;;;1.08;;
41512;SDS011;27244;59.940;30.280;2023-04-23T13:51:55;1.88;;;0.60;;
41512;SDS011;27244;59.940;30.280;2023-04-23T13:54:24;1.60;;;0.68;;
41512;SDS011;27244;59.940;30.280;2023-04-23T13:56:52;6.13;;;0.70;;
41512;SDS011;27244;59.940;30.280;2023-04-23T13:59:19;2.38;;;0.50;;
41512;SDS011;27244;59.940;30.280;2023-04-23T14:01:46;2.33;;;0.73;;
41512;SDS011;27244;59.940;30.280;2023-04-23T14:04:14;2.13;;;0.60;;
41512;SDS011;27244;59.940;30.280;2023-04-23T14:06:41;3.05;;;0.90;;
41512;SDS011;27244;59.940;30.280;2023-04-23T14:09:09;4.57;;;1.02;;
41512;SDS011;27244;59.940;30.280;2023-04-23T14:11:36;2.50;;;0.70;;
41512;SDS011;27244;59.940;30.280;2023-04-23T14:14:04;2.35;;;0.70;;
41512;SDS011;27244;59.940;30.280;2023-04-23T14:16:31;5.50;;;1.70;;
41512;SDS011;27244;59.940;30.280;2023-04-23T14:18:59;2.90;;;0.60;;
41512;SDS011;27244;59.940;30.280;2023-04-23T14:21:26;2.08;;;0.77;;
41512;SDS011;27244;59.940;30.280;2023-04-23T14:24:00;0.63;;;0.40;;
41512;SDS011;27244;59.940;30.280;2023-04-23T14:26:33;2.95;;;0.80;;
41512;SDS011;27244;59.940;30.280;2023-04-23T14:29:02;1.20;;;0.60;;
41512;SDS011;27244;59.940;30.280;2023-04-23T14:31:34;4.97;;;1.10;;
41512;SDS011;27244;59.940;30.280;2023-04-23T14:34:02;2.30;;;0.73;;
41512;SDS011;27244;59.940;30.280;2023-04-23T14:36:29;2.13;;;1.00;;
41512;SDS011;27244;59.940;30.280;2023-04-23T14:38:56;2.75;;;1.20;;
41512;SDS011;27244;59.940;30.280;2023-04-23T14:41:29;3.30;;;1.00;;
41512;SDS011;27244;59.940;30.280;2023-04-23T14:43:57;7.55;;;2.33;;
41512;SDS011;27244;59.940;30.280;2023-04-23T14:46:25;5.03;;;2.00;;